METAR Data
IDs: Format: Raw Decoded Include TAF

Data at: 1126 UTC 26 Sep 2018

KADH 261115Z AUTO 02010G18KT 10SM BKN040 OVC100 16/12 A3015 RMK AO2 LTG DSNT NW
KADH 261055Z AUTO 02010G18KT 10SM OVC040 16/12 A3014 RMK AO2
KADH 261035Z AUTO 02012G21KT 10SM OVC040 16/12 A3013 RMK AO2
KADH 261015Z AUTO 03011G16KT 10SM OVC040 16/12 A3012 RMK AO2
KADH 260955Z AUTO 03014G21KT 10SM OVC040 16/12 A3011 RMK AO2
KADH 260935Z AUTO 02012G17KT 10SM BKN042 OVC085 17/12 A3011 RMK AO2
KADH 260915Z AUTO 03008G15KT 10SM OVC042 17/12 A3011 RMK AO2
KADH 260855Z AUTO 03009G18KT 10SM SCT042 17/12 A3011 RMK AO2
KADH 260835Z AUTO 02008KT 10SM CLR 17/13 A3011 RMK AO2
KADH 260815Z AUTO 02010KT 10SM CLR 17/13 A3011 RMK AO2 LTG DSNT NW
KADH 260755Z AUTO 02008G14KT 10SM CLR 17/13 A3011 RMK AO2
KADH 260735Z AUTO 03008G14KT 10SM CLR 17/13 A3011 RMK AO2
KADH 260715Z AUTO 01011G16KT 10SM CLR 18/14 A3011 RMK AO2
KADH 260655Z AUTO 36007KT 10SM SCT085 18/15 A3011 RMK AO2
KADH 260635Z AUTO 01007KT 10SM CLR 18/15 A3011 RMK AO2
KADH 260615Z AUTO 02011G16KT 10SM CLR 18/15 A3010 RMK AO2
KADH 260555Z AUTO 01010G14KT 10SM CLR 18/15 A3010 RMK AO2
KADH 260535Z AUTO 36010G19KT 10SM CLR 19/15 A3010 RMK AO2
KADH 260515Z AUTO 36008G11KT 10SM SCT080 20/16 A3009 RMK AO2
KADH 260455Z AUTO 36009KT 10SM SCT080 20/17 A3008 RMK AO2
KADH 260435Z AUTO 36010G16KT 10SM CLR 21/17 A3007 RMK AO2
KADH 260415Z AUTO 35009G15KT 10SM CLR 21/18 A3007 RMK AO2
KADH 260355Z AUTO 36009KT 10SM SCT075 22/18 A3006 RMK AO2
KADH 260335Z AUTO 35006KT 10SM SCT075 22/19 A3005 RMK AO2
KADH 260315Z AUTO 35006KT 10SM BKN075 BKN110 22/19 A3003 RMK AO2
KADH 260255Z AUTO 28004KT 10SM SCT075 BKN110 23/20 A3001 RMK AO2
KADH 260235Z AUTO 00000KT 10SM BKN120 23/20 A3000 RMK AO2
KADH 260215Z AUTO 00000KT 10SM SCT120 23/20 A2999 RMK AO2
KADH 260155Z AUTO 00000KT 10SM BKN120 23/19 A2998 RMK AO2
KADH 260135Z AUTO 00000KT 10SM SCT110 24/19 A2997 RMK AO2
KADH 260115Z AUTO 00000KT 10SM SCT100 SCT120 25/19 A2996 RMK AO2
KADH 260055Z AUTO 00000KT 10SM SCT100 BKN120 23/20 A2995 RMK AO2
KADH 260035Z AUTO 00000KT 10SM CLR 26/19 A2995 RMK AO2
KADH 260015Z AUTO 00000KT 10SM CLR 27/18 A2994 RMK AO2
KADH 252355Z AUTO 00000KT 10SM CLR 28/19 A2993 RMK AO2
KADH 252335Z AUTO 00000KT 10SM CLR 28/19 A2993 RMK AO2
KADH 252315Z AUTO 00000KT 10SM CLR 29/17 A2992 RMK AO2
KADH 252255Z AUTO 23003KT 10SM CLR 30/17 A2992 RMK AO2
KADH 252235Z AUTO 24003KT 10SM CLR 30/16 A2991 RMK AO2
KADH 252215Z AUTO 00000KT 10SM CLR 29/17 A2991 RMK AO2
KADH 252155Z AUTO 23004KT 10SM CLR 30/17 A2991 RMK AO2
KADH 252135Z AUTO 25004KT 10SM CLR 30/17 A2991 RMK AO2
KADH 252115Z AUTO 20003KT 10SM SCT060 30/17 A2991 RMK AO2
KADH 252055Z AUTO 22003KT 10SM SCT060 30/16 A2991 RMK AO2
KADH 252035Z AUTO 23007KT 10SM SCT060 30/17 A2991 RMK AO2
KADH 252015Z AUTO 25005KT 10SM SCT060 30/17 A2991 RMK AO2
KADH 251955Z AUTO 22006KT 10SM CLR 30/17 A2991 RMK AO2
KADH 251935Z AUTO 23009KT 10SM CLR 30/17 A2992 RMK AO2
KADH 251915Z AUTO 22010KT 10SM CLR 30/17 A2992 RMK AO2
KADH 251855Z AUTO 22007KT 10SM SCT048 SCT060 30/19 A2993 RMK AO2
KADH 251835Z AUTO 22005KT 10SM CLR 30/19 A2993 RMK AO2
KADH 251815Z AUTO 21005KT 10SM CLR 29/20 A2994 RMK AO2
KADH 251755Z AUTO 19006KT 10SM CLR 28/20 A2994 RMK AO2
KADH 251735Z AUTO 23007KT 10SM CLR 28/20 A2995 RMK AO2
KADH 251715Z AUTO 22006KT 10SM CLR 27/21 A2995 RMK AO2
KADH 251655Z AUTO 23006KT 10SM CLR 27/21 A2995 RMK AO2
KADH 251635Z AUTO 19005KT 10SM CLR 26/21 A2996 RMK AO2
KADH 251615Z AUTO 20005KT 10SM CLR 26/21 A2996 RMK AO2
KADH 251555Z AUTO 22007KT 10SM CLR 26/21 A2996 RMK AO2
KADH 251535Z AUTO 20006KT 10SM SCT013 25/21 A2996 RMK AO2
KADH 251515Z AUTO 19006KT 10SM SCT011 23/22 A2996 RMK AO2
KADH 251455Z AUTO 19006KT 10SM SCT004 SCT011 23/22 A2996 RMK AO2
KADH 251435Z AUTO 16005KT 10SM BKN004 21/21 A2995 RMK AO2
KADH 251415Z AUTO 17005KT 7SM BKN004 21/21 A2995 RMK AO2
KADH 251355Z AUTO 16005KT 7SM BKN004 21/21 A2995 RMK AO2
KADH 251335Z AUTO 17006KT 7SM BKN004 20/20 A2995 RMK AO2
KADH 251315Z AUTO 16004KT 4SM BR BKN004 20/20 A2995 RMK AO2
KADH 251255Z AUTO 16004KT 3SM BR BKN002 20/20 A2995 RMK AO2
KADH 251235Z AUTO 16005KT 3SM BR BKN002 20/20 A2995 RMK AO2
KADH 251215Z AUTO 16005KT 5SM BR SCT002 SCT110 20/20 A2995 RMK AO2
KADH 251155Z AUTO 16004KT 7SM SCT004 SCT100 BKN120 20/20 A2994 RMK AO2
KADH 251135Z AUTO 17005KT 10SM SCT006 SCT110 20/20 A2993 RMK AO2
KADH 251115Z AUTO 17005KT 10SM SCT110 20/20 A2993 RMK AO2
KADH 251055Z AUTO 16005KT 7SM SCT110 20/20 A2992 RMK AO2
KADH 251035Z AUTO 17005KT 7SM BKN110 20/20 A2992 RMK AO2
KADH 251015Z AUTO 18005KT 7SM SCT006 BKN110 20/20 A2992 RMK AO2
KADH 250955Z AUTO 18005KT 7SM BKN006 BKN110 20/20 A2992 RMK AO2
KADH 250935Z AUTO 17004KT 5SM BR SCT004 SCT110 20/20 A2991 RMK AO2
KADH 250915Z AUTO 17004KT 5SM BR BKN004 20/20 A2991 RMK AO2
KADH 250855Z AUTO 18004KT 5SM BR OVC002 20/20 A2991 RMK AO2
KADH 250835Z AUTO 18005KT 3SM BR OVC002 20/20 A2990 RMK AO2
KADH 250815Z AUTO 17005KT 3SM BR OVC002 20/20 A2990 RMK AO2
KADH 250755Z AUTO 16005KT 1 1/4SM BR OVC002 20/20 A2990 RMK AO2
KADH 250735Z AUTO 16003KT 1SM BR OVC002 20/20 A2990 RMK AO2
KADH 250715Z AUTO 16004KT 3/4SM BR OVC002 20/20 A2991 RMK AO2
KADH 250655Z AUTO 15004KT 5SM BR BKN002 20/20 A2990 RMK AO2
KADH 250635Z AUTO 17004KT 7SM SCT002 SCT110 20/20 A2991 RMK AO2
KADH 250615Z AUTO 17004KT 10SM SCT110 20/20 A2991 RMK AO2
KADH 250555Z AUTO 15004KT 10SM SCT110 20/20 A2991 RMK AO2
KADH 250535Z AUTO 17004KT 10SM SCT110 20/20 A2991 RMK AO2
KADH 250515Z AUTO 16003KT 7SM BKN110 20/20 A2992 RMK AO2
KADH 250455Z AUTO 17003KT 7SM SCT110 20/20 A2992 RMK AO2
KADH 250435Z AUTO 17003KT 10SM CLR 20/20 A2992 RMK AO2
KADH 250415Z AUTO 00000KT 10SM CLR 20/20 A2991 RMK AO2
KADH 250355Z AUTO 15003KT 10SM SCT110 20/20 A2991 RMK AO2
KADH 250335Z AUTO 17003KT 10SM BKN110 21/21 A2991 RMK AO2
KADH 250315Z AUTO 17003KT 10SM BKN110 21/21 A2990 RMK AO2
KADH 250255Z AUTO 17004KT 10SM BKN110 21/21 A2990 RMK AO2
KADH 250235Z AUTO 16004KT 10SM SCT110 21/21 A2989 RMK AO2
KADH 250215Z AUTO 17003KT 10SM CLR 21/21 A2989 RMK AO2
KADH 250155Z AUTO 16004KT 10SM SCT110 21/21 A2988 RMK AO2
KADH 250135Z AUTO 17003KT 10SM SCT060 BKN110 21/21 A2988 RMK AO2
KADH 250115Z AUTO 16003KT 10SM BKN060 22/22 A2987 RMK AO2
KADH 250055Z AUTO 15004KT 10SM OVC060 22/22 A2986 RMK AO2
KADH 250035Z AUTO 14004KT 10SM OVC060 22/21 A2986 RMK AO2
KADH 250015Z AUTO 15006KT 10SM OVC060 23/21 A2986 RMK AO2
KADH 242355Z AUTO 16004KT 10SM BKN060 23/21 A2986 RMK AO2
KADH 242335Z AUTO 15005KT 10SM SCT060 23/21 A2986 RMK AO2